createdAt,value
2023-03-29T00:00:00.320Z,81.12
2023-03-29T00:00:51.996Z,81.15
2023-03-29T00:01:43.517Z,81.21
2023-03-29T00:02:35.033Z,81.05
2023-03-29T00:03:27.353Z,80.55
2023-03-29T00:04:22.125Z,80.64
2023-03-29T00:05:16.209Z,80.63
2023-03-29T00:06:08.210Z,80.89
2023-03-29T00:07:04.641Z,80.64
2023-03-29T00:08:01.793Z,80.69
2023-03-29T00:08:56.307Z,80.70
2023-03-29T00:09:48.170Z,81.33
2023-03-29T00:10:39.852Z,80.66
2023-03-29T00:11:31.760Z,80.82
2023-03-29T00:12:23.436Z,80.84
2023-03-29T00:13:15.225Z,80.88
2023-03-29T00:14:07.027Z,81.06
2023-03-29T00:14:58.841Z,80.70
2023-03-29T00:15:50.638Z,80.69
2023-03-29T00:16:44.456Z,80.79
2023-03-29T00:17:36.003Z,80.43
2023-03-29T00:18:27.509Z,80.61
2023-03-29T00:19:19.006Z,80.71
2023-03-29T00:20:10.885Z,80.68
2023-03-29T00:21:02.829Z,80.54
2023-03-29T00:21:54.644Z,80.71
2023-03-29T00:22:46.743Z,80.77
2023-03-29T00:23:38.336Z,80.76
2023-03-29T00:24:29.820Z,80.85
2023-03-29T00:25:21.300Z,80.51
2023-03-29T00:26:12.777Z,80.42
2023-03-29T00:27:04.914Z,80.50
2023-03-29T00:27:56.600Z,80.47
2023-03-29T00:28:48.409Z,80.63
2023-03-29T00:29:39.885Z,80.50
2023-03-29T00:30:31.704Z,80.16
2023-03-29T00:31:23.452Z,80.16
2023-03-29T00:32:15.408Z,80.25
2023-03-29T00:33:07.337Z,80.60
2023-03-29T00:33:58.838Z,80.30
2023-03-29T00:34:54.707Z,80.35
2023-03-29T00:35:48.691Z,80.15
2023-03-29T00:36:40.694Z,80.04
2023-03-29T00:37:32.878Z,79.98
2023-03-29T00:38:25.542Z,79.70
2023-03-29T00:39:18.605Z,79.48
2023-03-29T00:40:11.851Z,79.18
2023-03-29T00:41:04.969Z,79.53
2023-03-29T00:41:56.660Z,79.35
2023-03-29T00:42:48.277Z,79.23
2023-03-29T00:43:58.744Z,79.01
2023-03-29T00:45:18.687Z,79.01
2023-03-29T00:46:10.981Z,79.10
2023-03-29T00:47:02.698Z,79.10
2023-03-29T00:48:02.811Z,78.99
2023-03-29T00:49:01.990Z,78.92
2023-03-29T00:49:57.668Z,79.05
2023-03-29T00:50:58.775Z,79.23
2023-03-29T00:51:50.758Z,78.97
2023-03-29T00:52:48.676Z,79.12
2023-03-29T00:53:49.381Z,79.31
2023-03-29T00:54:45.122Z,79.37
2023-03-29T00:55:52.608Z,79.37
2023-03-29T00:56:51.209Z,79.42
2023-03-29T00:57:46.586Z,79.38
2023-03-29T00:58:49.417Z,79.44
2023-03-29T00:59:43.477Z,79.28
2023-03-29T01:00:42.000Z,79.48
2023-03-29T01:01:54.908Z,79.71
2023-03-29T01:02:59.513Z,79.97
2023-03-29T01:04:00.804Z,79.87
2023-03-29T01:05:05.497Z,79.82
2023-03-29T01:06:02.926Z,79.77
2023-03-29T01:07:09.159Z,79.91
2023-03-29T01:08:11.062Z,80.30
2023-03-29T01:09:08.936Z,80.42
2023-03-29T01:10:23.512Z,80.38
2023-03-29T01:11:22.167Z,80.31
2023-03-29T01:12:20.802Z,80.38
2023-03-29T01:13:26.209Z,80.48
2023-03-29T01:14:28.656Z,80.41
2023-03-29T01:15:27.357Z,80.30
2023-03-29T01:16:21.870Z,80.16
2023-03-29T01:17:13.902Z,80.01
2023-03-29T01:18:06.688Z,80.11
2023-03-29T01:19:00.320Z,80.31
2023-03-29T01:20:02.119Z,80.01
2023-03-29T01:21:19.563Z,79.90
2023-03-29T01:22:25.911Z,80.00
2023-03-29T01:23:59.194Z,80.46
2023-03-29T01:25:11.370Z,80.32
2023-03-29T01:26:27.029Z,79.89
2023-03-29T01:27:50.607Z,80.01
2023-03-29T01:29:06.684Z,80.39
2023-03-29T01:30:06.379Z,80.46
2023-03-29T01:31:12.448Z,80.32
2023-03-29T01:32:16.305Z,80.36
2023-03-29T01:33:21.269Z,80.24
2023-03-29T01:34:22.928Z,80.14
2023-03-29T01:35:35.654Z,80.34
2023-03-29T01:36:43.129Z,80.39
2023-03-29T01:37:43.762Z,80.37
2023-03-29T01:38:56.673Z,80.23
2023-03-29T01:39:48.260Z,79.54
2023-03-29T01:40:39.856Z,79.60
2023-03-29T01:41:56.692Z,79.48
2023-03-29T01:43:09.169Z,79.22
2023-03-29T01:44:17.758Z,79.65
2023-03-29T01:45:40.245Z,79.89
2023-03-29T01:46:45.999Z,79.53
2023-03-29T01:47:46.316Z,79.73
2023-03-29T01:48:46.383Z,79.82
2023-03-29T01:50:05.439Z,79.96
2023-03-29T01:51:26.546Z,80.14
2023-03-29T01:52:30.538Z,80.14
2023-03-29T01:53:34.127Z,80.14
2023-03-29T01:54:36.141Z,79.91
2023-03-29T01:55:35.938Z,79.94
2023-03-29T01:56:36.708Z,79.99
2023-03-29T01:57:31.873Z,80.21
2023-03-29T01:58:29.561Z,79.82
2023-03-29T01:59:28.536Z,79.06
2023-03-29T02:00:28.100Z,79.09
2023-03-29T02:01:26.233Z,79.25
2023-03-29T02:02:20.562Z,79.32
2023-03-29T02:03:17.384Z,78.88
2023-03-29T02:04:17.928Z,79.06
2023-03-29T02:05:12.777Z,79.34
2023-03-29T02:06:05.237Z,79.43
2023-03-29T02:07:00.565Z,79.47
2023-03-29T02:07:53.596Z,79.43
2023-03-29T02:08:47.437Z,79.43
2023-03-29T02:09:41.096Z,79.06
2023-03-29T02:10:36.703Z,79.11
2023-03-29T02:11:29.360Z,79.04
2023-03-29T02:12:21.485Z,79.17
2023-03-29T02:13:13.094Z,79.07
2023-03-29T02:14:05.667Z,78.91
2023-03-29T02:15:01.025Z,78.84
2023-03-29T02:15:53.303Z,79.07
2023-03-29T02:16:46.159Z,79.17
2023-03-29T02:17:38.008Z,78.92
2023-03-29T02:18:30.780Z,79.10
2023-03-29T02:19:25.174Z,79.15
2023-03-29T02:20:27.454Z,79.15
2023-03-29T02:21:30.813Z,78.89
2023-03-29T02:22:37.826Z,78.67
2023-03-29T02:23:45.395Z,78.58
2023-03-29T02:24:42.714Z,78.57
2023-03-29T02:25:37.236Z,78.51
2023-03-29T02:26:29.652Z,78.72
2023-03-29T02:27:21.825Z,78.75
2023-03-29T02:28:14.458Z,78.62
2023-03-29T02:29:06.310Z,78.69
2023-03-29T02:29:58.788Z,78.65
2023-03-29T02:31:05.525Z,78.84
2023-03-29T02:32:21.358Z,78.43
2023-03-29T02:33:39.128Z,78.25
2023-03-29T02:34:40.037Z,78.19
2023-03-29T02:35:38.629Z,77.68
2023-03-29T02:36:41.679Z,77.69
2023-03-29T02:37:40.942Z,77.97
2023-03-29T02:38:34.817Z,77.79
2023-03-29T02:39:33.591Z,77.89
2023-03-29T02:40:26.027Z,78.44
2023-03-29T02:41:18.307Z,78.56
2023-03-29T02:42:11.260Z,78.47
2023-03-29T02:43:07.580Z,78.46
2023-03-29T02:44:05.295Z,78.37
2023-03-29T02:45:02.174Z,78.45
2023-03-29T02:45:56.245Z,78.11
2023-03-29T02:46:53.182Z,78.12
2023-03-29T02:47:51.593Z,78.20
2023-03-29T02:48:48.255Z,78.29
2023-03-29T02:49:40.063Z,78.33
2023-03-29T02:50:41.082Z,78.27
2023-03-29T02:51:36.337Z,78.09
2023-03-29T02:52:37.323Z,77.96
2023-03-29T02:53:40.132Z,78.12
2023-03-29T02:54:32.738Z,78.10
2023-03-29T02:55:34.720Z,77.87
2023-03-29T02:56:26.420Z,77.67
2023-03-29T02:57:18.147Z,77.97
2023-03-29T02:58:10.196Z,78.03
2023-03-29T02:59:03.245Z,78.08
2023-03-29T02:59:59.875Z,77.60
2023-03-29T03:00:52.654Z,77.68
2023-03-29T03:01:44.654Z,77.82
2023-03-29T03:02:40.303Z,77.79
2023-03-29T03:03:33.593Z,78.00
2023-03-29T03:04:27.162Z,78.08
2023-03-29T03:05:19.282Z,77.60
2023-03-29T03:06:12.223Z,77.59
2023-03-29T03:07:07.389Z,77.30
2023-03-29T03:07:58.944Z,77.80
2023-03-29T03:08:50.444Z,78.05
2023-03-29T03:09:42.559Z,78.05
2023-03-29T03:10:35.541Z,77.66
2023-03-29T03:11:28.517Z,77.78
2023-03-29T03:12:20.083Z,77.80
2023-03-29T03:13:12.504Z,77.96
2023-03-29T03:14:05.098Z,78.27
2023-03-29T03:14:56.516Z,78.32
2023-03-29T03:15:49.491Z,78.09
2023-03-29T03:16:41.336Z,77.90
2023-03-29T03:17:33.608Z,78.04
2023-03-29T03:18:25.222Z,78.03
2023-03-29T03:19:16.720Z,77.56
2023-03-29T03:20:13.776Z,77.36
2023-03-29T03:21:06.848Z,77.16
2023-03-29T03:21:59.792Z,77.31
2023-03-29T03:22:51.215Z,77.22
2023-03-29T03:23:45.514Z,77.39
2023-03-29T03:24:37.009Z,77.36
2023-03-29T03:25:29.812Z,77.36
2023-03-29T03:26:24.986Z,77.38
2023-03-29T03:27:16.771Z,77.07
2023-03-29T03:28:10.441Z,77.09
2023-03-29T03:29:02.386Z,76.88
2023-03-29T03:30:21.052Z,77.04
2023-03-29T03:31:31.228Z,76.90
2023-03-29T03:32:38.880Z,76.94
2023-03-29T03:33:48.932Z,76.75
2023-03-29T03:35:00.678Z,77.16
2023-03-29T03:35:52.832Z,77.12
2023-03-29T03:36:44.849Z,76.91
2023-03-29T03:37:38.582Z,76.80
2023-03-29T03:38:36.019Z,76.78
2023-03-29T03:39:27.904Z,76.88
2023-03-29T03:40:20.973Z,76.90
2023-03-29T03:41:13.089Z,77.11
2023-03-29T03:42:07.977Z,77.28
2023-03-29T03:43:04.484Z,77.29
2023-03-29T03:43:56.049Z,77.40
2023-03-29T03:44:48.321Z,77.43
2023-03-29T03:46:09.258Z,77.23
2023-03-29T03:47:02.031Z,76.79
2023-03-29T03:47:53.878Z,77.25
2023-03-29T03:48:57.933Z,77.29
2023-03-29T03:49:54.932Z,76.61
2023-03-29T03:50:51.364Z,76.48
2023-03-29T03:51:45.373Z,76.38
2023-03-29T03:52:37.548Z,76.30
2023-03-29T03:53:29.459Z,76.62
2023-03-29T03:54:39.329Z,76.89
2023-03-29T03:55:57.301Z,76.18
2023-03-29T03:56:54.067Z,76.57
2023-03-29T03:57:53.391Z,76.57
2023-03-29T03:58:45.715Z,76.37
2023-03-29T03:59:38.936Z,76.59
2023-03-29T04:00:34.794Z,76.41
2023-03-29T04:01:44.106Z,76.45
2023-03-29T04:02:43.024Z,76.45
2023-03-29T04:03:34.903Z,76.42
2023-03-29T04:04:26.741Z,76.16
2023-03-29T04:05:27.241Z,76.40
2023-03-29T04:06:19.641Z,76.29
2023-03-29T04:07:34.325Z,75.85
2023-03-29T04:08:42.205Z,76.28
2023-03-29T04:09:38.776Z,76.37
2023-03-29T04:10:55.827Z,76.74
2023-03-29T04:11:56.716Z,76.74
2023-03-29T04:12:48.505Z,76.58
2023-03-29T04:13:39.959Z,76.43
2023-03-29T04:14:54.150Z,76.27
2023-03-29T04:15:49.588Z,76.43
2023-03-29T04:16:41.695Z,76.62
2023-03-29T04:18:00.612Z,76.85
2023-03-29T04:18:58.065Z,76.69
2023-03-29T04:19:49.898Z,76.93
2023-03-29T04:20:41.515Z,76.83
2023-03-29T04:21:34.438Z,76.72
2023-03-29T04:22:25.978Z,76.63
2023-03-29T04:23:18.514Z,76.16
2023-03-29T04:24:10.409Z,76.08
2023-03-29T04:25:05.545Z,76.09
2023-03-29T04:26:06.438Z,76.48
2023-03-29T04:27:08.452Z,76.26
2023-03-29T04:28:00.529Z,75.98
2023-03-29T04:29:05.427Z,75.93
2023-03-29T04:30:10.083Z,75.78
2023-03-29T04:31:39.899Z,76.33
2023-03-29T04:32:54.675Z,76.43
2023-03-29T04:33:47.360Z,76.49
2023-03-29T04:34:40.069Z,76.72
2023-03-29T04:35:31.866Z,76.64
2023-03-29T04:36:24.200Z,76.40
2023-03-29T04:37:16.266Z,76.29
2023-03-29T04:38:10.303Z,76.69
2023-03-29T04:39:04.177Z,77.01
2023-03-29T04:39:57.120Z,77.51
2023-03-29T04:40:50.377Z,77.91
2023-03-29T04:41:48.741Z,77.91
2023-03-29T04:42:47.191Z,78.19
2023-03-29T04:43:40.214Z,78.23
2023-03-29T04:44:51.685Z,78.22
2023-03-29T04:45:51.497Z,78.20
2023-03-29T04:47:08.585Z,78.53
2023-03-29T04:48:12.198Z,78.25
2023-03-29T04:49:07.243Z,77.98
2023-03-29T04:50:02.852Z,78.21
2023-03-29T04:51:04.283Z,78.29
2023-03-29T04:51:57.786Z,78.64
2023-03-29T04:52:53.054Z,79.03
2023-03-29T04:53:45.688Z,78.95
2023-03-29T04:54:37.358Z,78.80
2023-03-29T04:55:36.973Z,78.85
2023-03-29T04:56:29.394Z,78.79
2023-03-29T04:57:47.881Z,78.36
2023-03-29T04:58:44.506Z,78.32
2023-03-29T04:59:37.300Z,77.99
2023-03-29T05:00:39.941Z,78.18
2023-03-29T05:01:45.765Z,78.06
2023-03-29T05:02:37.571Z,78.07
2023-03-29T05:03:29.210Z,78.12
2023-03-29T05:04:25.712Z,78.45
2023-03-29T05:05:28.488Z,78.49
2023-03-29T05:06:22.014Z,78.39
2023-03-29T05:07:15.475Z,78.13
2023-03-29T05:08:09.397Z,78.15
2023-03-29T05:09:25.740Z,78.53
2023-03-29T05:10:18.160Z,78.31
2023-03-29T05:11:11.745Z,78.12
2023-03-29T05:12:03.426Z,77.92
2023-03-29T05:13:03.908Z,77.78
2023-03-29T05:13:58.613Z,77.27
2023-03-29T05:14:52.684Z,76.64
2023-03-29T05:15:46.343Z,76.88
2023-03-29T05:16:38.291Z,76.91
2023-03-29T05:17:31.890Z,77.05
2023-03-29T05:18:31.180Z,77.39
2023-03-29T05:19:23.254Z,77.35
2023-03-29T05:20:16.050Z,77.61
2023-03-29T05:21:09.403Z,77.71
2023-03-29T05:22:03.272Z,77.69
2023-03-29T05:22:55.108Z,77.67
2023-03-29T05:24:06.646Z,77.44
2023-03-29T05:25:20.712Z,77.28
2023-03-29T05:26:15.159Z,77.36
2023-03-29T05:27:11.714Z,77.38
2023-03-29T05:28:03.727Z,77.24
2023-03-29T05:28:57.456Z,76.83
2023-03-29T05:29:48.953Z,76.84
2023-03-29T05:31:04.587Z,76.80
2023-03-29T05:31:59.501Z,76.21
2023-03-29T05:32:51.034Z,76.30
2023-03-29T05:33:48.267Z,76.44
2023-03-29T05:34:40.969Z,75.57
2023-03-29T05:35:33.158Z,75.28
2023-03-29T05:36:29.012Z,75.75
2023-03-29T05:37:20.687Z,75.97
2023-03-29T05:38:20.990Z,75.81
2023-03-29T05:39:13.672Z,75.85
2023-03-29T05:40:08.458Z,76.05
2023-03-29T05:41:14.413Z,75.91
2023-03-29T05:42:24.637Z,76.26
2023-03-29T05:43:20.865Z,76.64
2023-03-29T05:44:12.629Z,76.31
2023-03-29T05:45:07.478Z,76.30
2023-03-29T05:46:00.286Z,76.00
2023-03-29T05:46:54.438Z,76.45
2023-03-29T05:47:46.371Z,76.44
2023-03-29T05:48:39.376Z,76.01
2023-03-29T05:49:30.975Z,75.35
2023-03-29T05:50:33.011Z,75.50
2023-03-29T05:51:24.975Z,75.53
2023-03-29T05:52:19.879Z,75.26
2023-03-29T05:53:11.674Z,75.51
2023-03-29T05:54:03.695Z,75.88
2023-03-29T05:54:55.324Z,75.58
2023-03-29T05:55:47.419Z,75.61
2023-03-29T05:56:41.901Z,75.51
2023-03-29T05:57:37.482Z,75.60
2023-03-29T05:58:30.796Z,75.44
2023-03-29T05:59:24.316Z,75.25
2023-03-29T06:00:25.658Z,75.56
2023-03-29T06:01:26.915Z,75.28
2023-03-29T06:02:31.635Z,75.22
2023-03-29T06:03:27.638Z,75.01
2023-03-29T06:04:22.594Z,74.65
2023-03-29T06:05:26.039Z,74.75
2023-03-29T06:06:23.144Z,74.42
2023-03-29T06:07:15.112Z,74.65
2023-03-29T06:08:11.646Z,74.61
2023-03-29T06:09:06.845Z,74.54
2023-03-29T06:10:02.711Z,74.41
2023-03-29T06:11:04.614Z,74.48
2023-03-29T06:12:31.561Z,74.23
2023-03-29T06:13:24.695Z,74.08
2023-03-29T06:14:17.596Z,74.31
2023-03-29T06:15:18.417Z,74.28
2023-03-29T06:16:13.899Z,73.84
2023-03-29T06:17:06.705Z,73.71
2023-03-29T06:17:59.223Z,73.62
2023-03-29T06:18:50.801Z,73.54
2023-03-29T06:19:42.414Z,73.40
2023-03-29T06:20:34.235Z,74.27
2023-03-29T06:21:31.636Z,74.23
2023-03-29T06:22:23.860Z,74.04
2023-03-29T06:23:15.614Z,74.21
2023-03-29T06:24:07.357Z,74.32
2023-03-29T06:25:05.951Z,73.76
2023-03-29T06:26:00.062Z,73.44
2023-03-29T06:26:52.390Z,73.42
2023-03-29T06:27:46.637Z,73.17
2023-03-29T06:28:39.826Z,72.68
2023-03-29T06:29:31.548Z,72.27
2023-03-29T06:30:23.321Z,72.52
2023-03-29T06:31:18.004Z,72.56
2023-03-29T06:32:09.695Z,72.78
2023-03-29T06:33:14.938Z,72.28
2023-03-29T06:34:22.366Z,72.58
2023-03-29T06:35:36.033Z,73.07
2023-03-29T06:36:34.250Z,73.21
2023-03-29T06:37:26.346Z,73.30
2023-03-29T06:38:28.702Z,73.08
2023-03-29T06:39:20.351Z,73.18
2023-03-29T06:40:32.063Z,72.90
2023-03-29T06:41:24.119Z,73.10
2023-03-29T06:42:31.074Z,72.41
2023-03-29T06:43:45.218Z,72.24
2023-03-29T06:44:40.371Z,72.77
2023-03-29T06:45:38.590Z,73.10
2023-03-29T06:46:37.944Z,72.52
2023-03-29T06:47:33.383Z,72.80
2023-03-29T06:48:25.270Z,72.62
2023-03-29T06:49:16.712Z,72.59
2023-03-29T06:50:22.195Z,72.57
2023-03-29T06:51:23.440Z,72.69
2023-03-29T06:52:15.960Z,72.66
2023-03-29T06:53:09.430Z,71.60
2023-03-29T06:54:01.062Z,71.75
2023-03-29T06:54:52.839Z,71.61
2023-03-29T06:55:44.480Z,71.69
2023-03-29T06:56:50.249Z,72.20
2023-03-29T06:57:44.655Z,72.13
2023-03-29T06:58:37.079Z,71.95
2023-03-29T06:59:36.615Z,71.61
2023-03-29T07:00:48.583Z,71.39
2023-03-29T07:01:47.180Z,71.02
2023-03-29T07:02:49.354Z,70.78
2023-03-29T07:03:41.209Z,70.82
2023-03-29T07:04:33.059Z,71.33
2023-03-29T07:05:40.550Z,71.26
2023-03-29T07:06:34.214Z,71.28
2023-03-29T07:07:33.111Z,70.80
2023-03-29T07:08:46.866Z,70.92
2023-03-29T07:09:53.902Z,70.13
2023-03-29T07:11:08.905Z,70.11
2023-03-29T07:12:19.016Z,69.64
2023-03-29T07:13:15.344Z,70.35
2023-03-29T07:14:07.928Z,70.16
2023-03-29T07:14:59.424Z,70.11
2023-03-29T07:16:13.106Z,70.02
2023-03-29T07:17:25.118Z,70.37
2023-03-29T07:18:18.364Z,70.50
2023-03-29T07:19:10.685Z,70.47
2023-03-29T07:20:23.505Z,70.48
2023-03-29T07:21:24.746Z,70.11
2023-03-29T07:22:16.483Z,70.64
2023-03-29T07:23:13.461Z,70.41
2023-03-29T07:24:06.620Z,70.20
2023-03-29T07:25:00.410Z,69.71
2023-03-29T07:25:52.120Z,69.58
2023-03-29T07:26:56.239Z,69.17
2023-03-29T07:27:52.347Z,69.14
2023-03-29T07:28:44.095Z,69.57
2023-03-29T07:29:35.992Z,69.54
2023-03-29T07:30:32.183Z,69.42
2023-03-29T07:31:50.547Z,69.42
2023-03-29T07:33:00.866Z,68.40
2023-03-29T07:33:57.793Z,68.25
2023-03-29T07:34:51.420Z,68.94
2023-03-29T07:35:57.643Z,69.08
2023-03-29T07:36:50.291Z,68.87
2023-03-29T07:37:44.278Z,68.90
2023-03-29T07:38:38.506Z,68.71
2023-03-29T07:39:37.937Z,69.63
2023-03-29T07:41:06.888Z,69.04
2023-03-29T07:42:04.465Z,69.14
2023-03-29T07:42:57.285Z,69.73
2023-03-29T07:43:51.760Z,69.77
2023-03-29T07:44:48.642Z,69.50
2023-03-29T07:45:42.279Z,69.80
2023-03-29T07:46:36.725Z,68.64
2023-03-29T07:47:29.993Z,68.86
2023-03-29T07:48:22.278Z,69.07
2023-03-29T07:49:17.299Z,69.31
2023-03-29T07:50:09.919Z,68.97
2023-03-29T07:51:02.141Z,69.18
2023-03-29T07:51:59.724Z,69.21
2023-03-29T07:52:52.047Z,69.25
2023-03-29T07:53:44.663Z,68.74
2023-03-29T07:54:51.547Z,68.80
2023-03-29T07:55:49.781Z,68.77
2023-03-29T07:57:06.680Z,68.46
2023-03-29T07:58:07.407Z,68.30
2023-03-29T07:58:59.835Z,68.13
2023-03-29T07:59:51.711Z,67.72
2023-03-29T08:00:49.014Z,67.87
2023-03-29T08:02:12.312Z,67.35
2023-03-29T08:03:11.249Z,67.18
2023-03-29T08:04:03.097Z,66.48
2023-03-29T08:05:23.230Z,66.31
2023-03-29T08:06:22.566Z,66.26
2023-03-29T08:07:17.699Z,66.02
2023-03-29T08:08:28.931Z,65.28
2023-03-29T08:09:25.881Z,64.88
2023-03-29T08:10:22.171Z,65.61
2023-03-29T08:11:24.593Z,65.61
2023-03-29T08:12:25.088Z,65.89
2023-03-29T08:13:17.479Z,65.54
2023-03-29T08:14:31.262Z,64.90
2023-03-29T08:15:30.872Z,65.45
2023-03-29T08:16:22.398Z,65.71
2023-03-29T08:17:20.593Z,66.26
2023-03-29T08:18:19.569Z,66.54
2023-03-29T08:19:13.228Z,65.86
2023-03-29T08:20:34.453Z,66.10
2023-03-29T08:21:28.781Z,66.40
2023-03-29T08:22:20.633Z,66.34
2023-03-29T08:23:31.653Z,63.83
2023-03-29T08:24:36.178Z,64.45
2023-03-29T08:25:31.234Z,64.16
2023-03-29T08:26:23.832Z,63.59
2023-03-29T08:27:16.196Z,64.19
2023-03-29T08:28:08.097Z,64.95
2023-03-29T08:29:10.572Z,64.78
2023-03-29T08:30:05.061Z,64.66
2023-03-29T08:30:59.821Z,63.77
2023-03-29T08:31:54.608Z,64.69
2023-03-29T08:32:49.318Z,63.93
2023-03-29T08:33:44.105Z,63.71
2023-03-29T08:34:53.925Z,63.52
2023-03-29T08:35:57.128Z,63.25
2023-03-29T08:36:53.781Z,63.08
2023-03-29T08:37:52.566Z,63.61
2023-03-29T08:38:44.324Z,62.84
2023-03-29T08:39:36.352Z,62.66
2023-03-29T08:40:49.047Z,63.39
2023-03-29T08:42:08.694Z,63.15
2023-03-29T08:43:28.502Z,62.39
2023-03-29T08:45:22.873Z,63.10
2023-03-29T08:46:39.292Z,63.82
2023-03-29T08:48:04.024Z,64.24
2023-03-29T08:49:03.898Z,63.07
2023-03-29T08:49:59.073Z,62.98
2023-03-29T08:51:13.105Z,62.59
2023-03-29T08:52:15.850Z,63.13
2023-03-29T08:53:19.363Z,62.85
2023-03-29T08:54:40.052Z,62.83
2023-03-29T08:55:42.644Z,62.39
2023-03-29T08:56:49.916Z,63.52
2023-03-29T08:57:56.274Z,63.00
2023-03-29T08:58:58.016Z,62.75
2023-03-29T08:59:57.229Z,62.65
2023-03-29T09:00:59.434Z,63.45
2023-03-29T09:01:58.136Z,63.80
2023-03-29T09:02:53.666Z,63.67
2023-03-29T09:03:46.572Z,63.67
2023-03-29T09:04:53.146Z,63.12
2023-03-29T09:06:09.332Z,62.25
2023-03-29T09:07:03.559Z,63.41
2023-03-29T09:08:03.901Z,63.35
2023-03-29T09:08:55.836Z,62.47
2023-03-29T09:09:48.190Z,63.30
2023-03-29T09:11:34.181Z,63.80
2023-03-29T09:12:49.182Z,63.88
2023-03-29T09:13:50.172Z,64.09
2023-03-29T09:15:11.626Z,64.08
2023-03-29T09:16:20.664Z,64.01
2023-03-29T09:17:39.100Z,64.16
2023-03-29T09:18:44.871Z,63.23
2023-03-29T09:20:13.749Z,63.42
2023-03-29T09:21:22.540Z,63.96
2023-03-29T09:22:35.316Z,64.04
2023-03-29T09:23:46.886Z,64.23
2023-03-29T09:24:54.874Z,64.39
2023-03-29T09:26:22.472Z,64.02
2023-03-29T09:28:09.832Z,64.50
2023-03-29T09:29:19.568Z,64.37
2023-03-29T09:30:26.257Z,61.41
2023-03-29T09:31:32.402Z,63.18
2023-03-29T09:32:36.013Z,62.59
2023-03-29T09:33:37.128Z,62.01
2023-03-29T09:34:44.915Z,63.22
2023-03-29T09:36:02.860Z,63.34
2023-03-29T09:37:08.716Z,63.72
2023-03-29T09:38:01.593Z,62.92
2023-03-29T09:38:55.468Z,62.11
2023-03-29T09:39:53.263Z,62.52
2023-03-29T09:40:55.211Z,61.96
2023-03-29T09:41:54.694Z,62.01
2023-03-29T09:42:51.540Z,62.22
2023-03-29T09:43:47.112Z,62.46
2023-03-29T09:45:01.919Z,63.15
2023-03-29T09:46:06.482Z,62.67
2023-03-29T09:47:13.496Z,63.25
2023-03-29T09:48:15.578Z,63.11
2023-03-29T09:49:24.831Z,63.17
2023-03-29T09:50:31.859Z,62.93
2023-03-29T09:51:29.878Z,62.70
2023-03-29T09:52:21.902Z,62.15
2023-03-29T09:53:24.864Z,62.58
2023-03-29T09:54:32.683Z,61.90
2023-03-29T09:55:50.232Z,62.77
2023-03-29T09:57:01.176Z,62.10
2023-03-29T09:57:56.182Z,62.26
2023-03-29T09:58:49.397Z,62.31
2023-03-29T09:59:46.598Z,62.55
2023-03-29T10:00:40.048Z,61.92
2023-03-29T10:01:41.469Z,62.06
2023-03-29T10:02:33.363Z,61.96
2023-03-29T10:03:28.591Z,63.16
2023-03-29T10:04:42.918Z,62.98
2023-03-29T10:05:39.899Z,63.45
2023-03-29T10:06:41.675Z,63.02
2023-03-29T10:07:46.385Z,62.34
2023-03-29T10:08:44.317Z,61.74
2023-03-29T10:09:36.205Z,61.96
2023-03-29T10:10:41.455Z,62.92
2023-03-29T10:11:36.741Z,62.89
2023-03-29T10:12:28.568Z,62.13
2023-03-29T10:13:47.208Z,63.29
2023-03-29T10:14:51.486Z,61.96
2023-03-29T10:15:44.665Z,62.19
2023-03-29T10:16:46.128Z,61.54
2023-03-29T10:17:40.703Z,61.89
2023-03-29T10:18:34.326Z,61.40
2023-03-29T10:19:34.768Z,61.15
2023-03-29T10:20:27.615Z,61.10
2023-03-29T10:21:23.605Z,61.46
2023-03-29T10:22:20.133Z,61.54
2023-03-29T10:23:18.653Z,61.32
2023-03-29T10:24:10.367Z,62.76
2023-03-29T10:25:04.615Z,62.00
2023-03-29T10:25:56.434Z,60.67
2023-03-29T10:26:55.717Z,61.92
2023-03-29T10:27:48.088Z,61.46
2023-03-29T10:28:39.938Z,60.53
2023-03-29T10:29:42.476Z,60.65
2023-03-29T10:30:38.030Z,60.58
2023-03-29T10:31:36.788Z,60.51
2023-03-29T10:32:33.653Z,61.24
2023-03-29T10:33:31.368Z,61.19
2023-03-29T10:34:26.152Z,61.85
2023-03-29T10:35:38.134Z,62.43
2023-03-29T10:36:30.559Z,60.92
2023-03-29T10:37:23.763Z,60.95
2023-03-29T10:38:22.775Z,59.92
2023-03-29T10:39:16.479Z,61.04
2023-03-29T10:40:22.094Z,60.81
2023-03-29T10:41:17.233Z,62.18
2023-03-29T10:42:16.591Z,62.24
2023-03-29T10:43:19.166Z,61.18
2023-03-29T10:44:34.415Z,60.80
2023-03-29T10:45:34.709Z,60.26
2023-03-29T10:46:40.914Z,58.61
2023-03-29T10:47:34.345Z,57.69
2023-03-29T10:48:31.073Z,59.91
2023-03-29T10:49:23.499Z,57.76
2023-03-29T10:50:16.445Z,58.51
2023-03-29T10:51:08.229Z,58.32
2023-03-29T10:51:59.874Z,58.51
2023-03-29T10:52:51.854Z,58.19
2023-03-29T10:53:43.609Z,58.45
2023-03-29T10:54:36.597Z,57.47
2023-03-29T10:55:39.925Z,57.04
2023-03-29T10:56:46.974Z,57.58
2023-03-29T10:58:02.940Z,58.30
2023-03-29T10:59:00.738Z,57.85
2023-03-29T11:00:00.900Z,57.78
2023-03-29T11:00:56.960Z,58.39
2023-03-29T11:01:51.569Z,58.30
2023-03-29T11:03:07.362Z,58.02
2023-03-29T11:04:34.689Z,57.67
2023-03-29T11:05:35.083Z,57.23
2023-03-29T11:06:36.147Z,55.95
2023-03-29T11:07:52.281Z,57.72
2023-03-29T11:08:54.144Z,55.55
2023-03-29T11:10:24.860Z,56.00
2023-03-29T11:11:40.979Z,56.12
2023-03-29T11:12:47.996Z,56.63
2023-03-29T11:13:52.601Z,54.79
2023-03-29T11:15:33.008Z,55.82
2023-03-29T11:16:59.612Z,56.28
2023-03-29T11:18:28.603Z,55.73
2023-03-29T11:19:45.607Z,55.85
2023-03-29T11:20:45.301Z,56.94
2023-03-29T11:22:01.591Z,57.14
2023-03-29T11:23:16.319Z,56.91
2023-03-29T11:24:44.042Z,56.96
2023-03-29T11:26:09.884Z,56.80
2023-03-29T11:27:37.615Z,56.36
2023-03-29T11:28:31.941Z,57.44
2023-03-29T11:29:51.073Z,57.37
2023-03-29T11:30:56.104Z,57.57
2023-03-29T11:32:13.931Z,56.98
2023-03-29T11:33:16.784Z,56.84
2023-03-29T11:34:37.342Z,56.17
2023-03-29T11:36:09.453Z,56.27
2023-03-29T11:37:22.668Z,55.35
2023-03-29T11:38:22.213Z,55.83
2023-03-29T11:39:28.856Z,53.90
2023-03-29T11:40:47.512Z,55.12
2023-03-29T11:41:44.847Z,55.04
2023-03-29T11:42:43.988Z,56.38
2023-03-29T11:43:50.645Z,54.33
2023-03-29T11:44:48.513Z,55.15
2023-03-29T11:46:01.937Z,54.53
2023-03-29T11:47:00.985Z,54.57
2023-03-29T11:47:56.465Z,55.17
2023-03-29T11:49:00.042Z,53.88
2023-03-29T11:49:57.479Z,54.67
2023-03-29T11:50:54.795Z,54.63
2023-03-29T11:52:03.253Z,54.40
2023-03-29T11:53:08.464Z,54.62
2023-03-29T11:54:11.100Z,55.71
2023-03-29T11:55:09.934Z,55.25
2023-03-29T11:56:12.083Z,55.37
2023-03-29T11:57:18.475Z,55.57
2023-03-29T11:58:39.967Z,55.63
2023-03-29T11:59:36.490Z,56.03
2023-03-29T12:00:39.725Z,55.06
2023-03-29T12:01:37.466Z,55.28
2023-03-29T12:02:40.983Z,54.65
2023-03-29T12:04:01.951Z,55.16
2023-03-29T12:05:01.162Z,54.31
2023-03-29T12:06:04.478Z,55.64
2023-03-29T12:07:29.709Z,54.54
2023-03-29T12:08:35.500Z,53.73
2023-03-29T12:09:39.507Z,53.47
2023-03-29T12:10:38.034Z,53.79
2023-03-29T12:11:51.275Z,54.84
2023-03-29T12:12:50.668Z,53.80
2023-03-29T12:13:55.220Z,54.39
2023-03-29T12:15:05.547Z,54.36
2023-03-29T12:16:10.523Z,53.34
2023-03-29T12:17:09.164Z,53.87
2023-03-29T12:18:22.177Z,53.42
2023-03-29T12:19:16.862Z,53.85
2023-03-29T12:20:29.226Z,53.31
2023-03-29T12:21:29.409Z,54.18
2023-03-29T12:22:22.883Z,53.76
2023-03-29T12:23:16.627Z,55.35
2023-03-29T12:24:13.194Z,55.72
2023-03-29T12:25:14.691Z,54.27
2023-03-29T12:26:12.163Z,54.19
2023-03-29T12:27:17.710Z,54.59
2023-03-29T12:28:27.199Z,56.81
2023-03-29T12:29:28.475Z,54.08
2023-03-29T12:30:45.080Z,55.10
2023-03-29T12:31:56.565Z,55.69
2023-03-29T12:33:14.355Z,54.66
2023-03-29T12:35:11.657Z,56.45
2023-03-29T12:36:48.362Z,55.99
2023-03-29T12:38:30.572Z,56.34
2023-03-29T12:39:40.827Z,56.45
2023-03-29T12:40:57.187Z,55.03
2023-03-29T12:42:25.093Z,54.91
2023-03-29T12:43:43.338Z,54.82
2023-03-29T12:45:01.505Z,53.88
2023-03-29T12:46:08.318Z,54.17
2023-03-29T12:47:01.406Z,54.13
2023-03-29T12:47:53.207Z,53.60
2023-03-29T12:48:51.092Z,53.17
2023-03-29T12:49:44.656Z,53.05
2023-03-29T12:51:02.313Z,54.31
2023-03-29T12:51:57.962Z,53.07
2023-03-29T12:52:52.609Z,53.64
2023-03-29T12:53:57.086Z,54.12
2023-03-29T12:54:58.684Z,53.16
2023-03-29T12:56:13.734Z,54.14